sensor_id;sensor_type;location;lat;lon;timestamp;temperature;humidity
34460;DHT22;20704;51.260;22.558;2022-09-16T00:11:08;15.30;99.90
34460;DHT22;20704;51.260;22.558;2022-09-16T00:25:53;15.30;99.90
34460;DHT22;20704;51.260;22.558;2022-09-16T00:33:13;15.30;99.90
34460;DHT22;20704;51.260;22.558;2022-09-16T00:40:32;15.30;99.90
34460;DHT22;20704;51.260;22.558;2022-09-16T00:45:25;15.20;99.90
34460;DHT22;20704;51.260;22.558;2022-09-16T00:52:48;15.10;99.90
34460;DHT22;20704;51.260;22.558;2022-09-16T01:00:08;15.00;99.90
34460;DHT22;20704;51.260;22.558;2022-09-16T01:02:39;15.00;99.90
34460;DHT22;20704;51.260;22.558;2022-09-16T01:09:58;15.10;99.90
34460;DHT22;20704;51.260;22.558;2022-09-16T01:35:07;14.70;99.90
34460;DHT22;20704;51.260;22.558;2022-09-16T01:45:07;14.80;99.90
34460;DHT22;20704;51.260;22.558;2022-09-16T01:57:59;14.70;99.90
34460;DHT22;20704;51.260;22.558;2022-09-16T02:00:23;14.70;99.90
34460;DHT22;20704;51.260;22.558;2022-09-16T02:10:20;14.60;99.90
34460;DHT22;20704;51.260;22.558;2022-09-16T02:12:47;14.60;99.90
34460;DHT22;20704;51.260;22.558;2022-09-16T02:22:40;14.40;99.90
34460;DHT22;20704;51.260;22.558;2022-09-16T02:27:34;14.40;99.90
34460;DHT22;20704;51.260;22.558;2022-09-16T02:30:02;14.40;99.90
34460;DHT22;20704;51.260;22.558;2022-09-16T02:32:30;14.40;99.90
34460;DHT22;20704;51.260;22.558;2022-09-16T02:34:58;14.40;99.90
34460;DHT22;20704;51.260;22.558;2022-09-16T02:42:19;14.30;99.90
34460;DHT22;20704;51.260;22.558;2022-09-16T02:44:45;14.30;99.90
34460;DHT22;20704;51.260;22.558;2022-09-16T02:47:14;14.20;99.90
34460;DHT22;20704;51.260;22.558;2022-09-16T02:49:49;14.30;99.90
34460;DHT22;20704;51.260;22.558;2022-09-16T02:52:28;14.10;99.90
34460;DHT22;20704;51.260;22.558;2022-09-16T02:55:21;14.10;99.90
34460;DHT22;20704;51.260;22.558;2022-09-16T03:00:12;14.10;99.90
34460;DHT22;20704;51.260;22.558;2022-09-16T03:02:38;13.90;99.90
34460;DHT22;20704;51.260;22.558;2022-09-16T03:05:04;14.00;99.90
34460;DHT22;20704;51.260;22.558;2022-09-16T03:07:30;13.90;99.90
34460;DHT22;20704;51.260;22.558;2022-09-16T03:09:56;13.90;99.90
34460;DHT22;20704;51.260;22.558;2022-09-16T03:34:40;13.60;99.90
34460;DHT22;20704;51.260;22.558;2022-09-16T03:44:31;13.60;99.90
34460;DHT22;20704;51.260;22.558;2022-09-16T03:46:57;13.50;99.90
34460;DHT22;20704;51.260;22.558;2022-09-16T03:49:23;13.50;99.90
34460;DHT22;20704;51.260;22.558;2022-09-16T03:51:49;13.50;99.90
34460;DHT22;20704;51.260;22.558;2022-09-16T03:54:14;13.60;99.90
34460;DHT22;20704;51.260;22.558;2022-09-16T03:59:07;13.50;99.90
34460;DHT22;20704;51.260;22.558;2022-09-16T04:01:32;13.40;99.90
34460;DHT22;20704;51.260;22.558;2022-09-16T04:03:58;13.40;99.90
34460;DHT22;20704;51.260;22.558;2022-09-16T04:16:10;13.30;99.90
34460;DHT22;20704;51.260;22.558;2022-09-16T04:18:36;13.30;99.90
34460;DHT22;20704;51.260;22.558;2022-09-16T04:21:02;13.30;99.90
34460;DHT22;20704;51.260;22.558;2022-09-16T04:25:59;13.40;99.90
34460;DHT22;20704;51.260;22.558;2022-09-16T04:28:26;13.50;99.90
34460;DHT22;20704;51.260;22.558;2022-09-16T04:33:19;13.80;99.90
34460;DHT22;20704;51.260;22.558;2022-09-16T04:35:45;13.70;99.90
34460;DHT22;20704;51.260;22.558;2022-09-16T04:38:12;14.00;99.90
34460;DHT22;20704;51.260;22.558;2022-09-16T04:40:38;14.20;99.90
34460;DHT22;20704;51.260;22.558;2022-09-16T04:43:04;14.40;99.90
34460;DHT22;20704;51.260;22.558;2022-09-16T04:45:30;14.60;99.90
34460;DHT22;20704;51.260;22.558;2022-09-16T04:47:56;14.80;99.90
34460;DHT22;20704;51.260;22.558;2022-09-16T04:50:23;15.00;99.90
34460;DHT22;20704;51.260;22.558;2022-09-16T04:52:49;15.00;99.90
34460;DHT22;20704;51.260;22.558;2022-09-16T04:55:16;14.90;99.90
34460;DHT22;20704;51.260;22.558;2022-09-16T04:57:42;15.30;99.90
34460;DHT22;20704;51.260;22.558;2022-09-16T05:00:09;15.70;99.90
34460;DHT22;20704;51.260;22.558;2022-09-16T05:02:35;16.00;99.90
34460;DHT22;20704;51.260;22.558;2022-09-16T05:05:01;16.50;99.90
34460;DHT22;20704;51.260;22.558;2022-09-16T05:07:27;16.90;99.90
34460;DHT22;20704;51.260;22.558;2022-09-16T05:09:54;17.50;99.90
34460;DHT22;20704;51.260;22.558;2022-09-16T05:12:20;17.60;99.90
34460;DHT22;20704;51.260;22.558;2022-09-16T05:14:46;18.60;99.90
34460;DHT22;20704;51.260;22.558;2022-09-16T05:17:12;24.10;99.90
34460;DHT22;20704;51.260;22.558;2022-09-16T05:19:38;20.10;99.90
34460;DHT22;20704;51.260;22.558;2022-09-16T05:22:04;21.00;99.90
34460;DHT22;20704;51.260;22.558;2022-09-16T05:24:35;21.70;99.10
34460;DHT22;20704;51.260;22.558;2022-09-16T05:27:04;22.60;95.60
34460;DHT22;20704;51.260;22.558;2022-09-16T05:29:29;22.80;94.80
34460;DHT22;20704;51.260;22.558;2022-09-16T05:31:55;23.00;92.60
34460;DHT22;20704;51.260;22.558;2022-09-16T05:34:22;23.50;90.80
34460;DHT22;20704;51.260;22.558;2022-09-16T05:36:53;23.50;90.20
34460;DHT22;20704;51.260;22.558;2022-09-16T05:39:20;23.90;88.20
34460;DHT22;20704;51.260;22.558;2022-09-16T05:41:46;24.20;87.60
34460;DHT22;20704;51.260;22.558;2022-09-16T05:44:12;24.80;84.70
34460;DHT22;20704;51.260;22.558;2022-09-16T05:46:38;25.00;82.50
34460;DHT22;20704;51.260;22.558;2022-09-16T05:49:08;25.60;79.90
34460;DHT22;20704;51.260;22.558;2022-09-16T05:51:35;25.90;77.80
34460;DHT22;20704;51.260;22.558;2022-09-16T05:54:01;26.40;77.50
34460;DHT22;20704;51.260;22.558;2022-09-16T05:56:28;26.60;75.60
34460;DHT22;20704;51.260;22.558;2022-09-16T05:58:55;26.70;74.10
34460;DHT22;20704;51.260;22.558;2022-09-16T06:01:22;26.80;72.60
34460;DHT22;20704;51.260;22.558;2022-09-16T06:03:49;26.90;72.20
34460;DHT22;20704;51.260;22.558;2022-09-16T06:08:47;27.90;71.00
34460;DHT22;20704;51.260;22.558;2022-09-16T06:11:13;27.50;70.50
34460;DHT22;20704;51.260;22.558;2022-09-16T06:13:40;28.00;68.80
34460;DHT22;20704;51.260;22.558;2022-09-16T06:16:06;28.00;68.20
34460;DHT22;20704;51.260;22.558;2022-09-16T06:18:33;27.30;69.60
34460;DHT22;20704;51.260;22.558;2022-09-16T06:21:03;26.20;71.60
34460;DHT22;20704;51.260;22.558;2022-09-16T06:23:29;25.40;72.90
34460;DHT22;20704;51.260;22.558;2022-09-16T06:26:28;24.10;74.90
34460;DHT22;20704;51.260;22.558;2022-09-16T06:28:47;23.00;77.40
34460;DHT22;20704;51.260;22.558;2022-09-16T06:31:14;22.50;80.50
34460;DHT22;20704;51.260;22.558;2022-09-16T06:33:41;19.60;79.80
34460;DHT22;20704;51.260;22.558;2022-09-16T06:36:07;22.00;82.10
34460;DHT22;20704;51.260;22.558;2022-09-16T06:38:34;22.60;81.80
34460;DHT22;20704;51.260;22.558;2022-09-16T06:41:01;23.00;80.90
34460;DHT22;20704;51.260;22.558;2022-09-16T06:43:27;22.70;80.00
34460;DHT22;20704;51.260;22.558;2022-09-16T06:46:01;22.90;80.30
34460;DHT22;20704;51.260;22.558;2022-09-16T06:48:27;23.50;80.00
34460;DHT22;20704;51.260;22.558;2022-09-16T06:50:57;23.80;80.20
34460;DHT22;20704;51.260;22.558;2022-09-16T06:53:24;23.50;79.30
34460;DHT22;20704;51.260;22.558;2022-09-16T06:55:49;22.70;78.70
34460;DHT22;20704;51.260;22.558;2022-09-16T06:58:15;24.00;79.00
34460;DHT22;20704;51.260;22.558;2022-09-16T07:00:41;23.30;78.40
34460;DHT22;20704;51.260;22.558;2022-09-16T07:03:07;22.90;79.20
34460;DHT22;20704;51.260;22.558;2022-09-16T07:05:33;22.60;80.10
34460;DHT22;20704;51.260;22.558;2022-09-16T07:07:59;22.50;81.40
34460;DHT22;20704;51.260;22.558;2022-09-16T07:10:25;22.40;81.70
34460;DHT22;20704;51.260;22.558;2022-09-16T07:12:51;21.40;83.30
34460;DHT22;20704;51.260;22.558;2022-09-16T07:15:17;21.30;83.90
34460;DHT22;20704;51.260;22.558;2022-09-16T07:17:43;22.00;84.00
34460;DHT22;20704;51.260;22.558;2022-09-16T07:20:08;21.60;83.40
34460;DHT22;20704;51.260;22.558;2022-09-16T07:22:34;21.30;84.20
34460;DHT22;20704;51.260;22.558;2022-09-16T07:25:00;22.10;83.40
34460;DHT22;20704;51.260;22.558;2022-09-16T07:27:26;22.10;82.70
34460;DHT22;20704;51.260;22.558;2022-09-16T07:29:52;21.40;82.50
34460;DHT22;20704;51.260;22.558;2022-09-16T07:32:18;21.20;83.80
34460;DHT22;20704;51.260;22.558;2022-09-16T07:34:44;17.30;82.60
34460;DHT22;20704;51.260;22.558;2022-09-16T07:37:10;21.30;83.70
34460;DHT22;20704;51.260;22.558;2022-09-16T07:39:37;21.20;84.10
34460;DHT22;20704;51.260;22.558;2022-09-16T07:42:03;21.50;85.00
34460;DHT22;20704;51.260;22.558;2022-09-16T07:44:29;21.50;83.50
34460;DHT22;20704;51.260;22.558;2022-09-16T07:46:55;21.50;82.80
34460;DHT22;20704;51.260;22.558;2022-09-16T07:49:21;22.10;82.90
34460;DHT22;20704;51.260;22.558;2022-09-16T07:51:47;22.10;81.60
34460;DHT22;20704;51.260;22.558;2022-09-16T07:54:14;22.40;81.60
34460;DHT22;20704;51.260;22.558;2022-09-16T07:56:41;23.60;81.70
34460;DHT22;20704;51.260;22.558;2022-09-16T07:59:09;22.80;80.90
34460;DHT22;20704;51.260;22.558;2022-09-16T08:01:35;23.20;80.20
34460;DHT22;20704;51.260;22.558;2022-09-16T08:04:01;22.90;79.50
34460;DHT22;20704;51.260;22.558;2022-09-16T08:06:29;22.50;78.70
34460;DHT22;20704;51.260;22.558;2022-09-16T08:08:58;22.40;79.50
34460;DHT22;20704;51.260;22.558;2022-09-16T08:11:28;22.40;79.80
34460;DHT22;20704;51.260;22.558;2022-09-16T08:13:56;22.20;79.90
34460;DHT22;20704;51.260;22.558;2022-09-16T08:16:22;22.10;79.90
34460;DHT22;20704;51.260;22.558;2022-09-16T08:18:49;22.30;79.30
34460;DHT22;20704;51.260;22.558;2022-09-16T08:21:26;22.50;78.60
34460;DHT22;20704;51.260;22.558;2022-09-16T08:23:53;22.30;77.50
34460;DHT22;20704;51.260;22.558;2022-09-16T08:26:19;22.10;77.90
34460;DHT22;20704;51.260;22.558;2022-09-16T08:28:45;22.10;77.90
34460;DHT22;20704;51.260;22.558;2022-09-16T08:31:13;21.60;78.50
34460;DHT22;20704;51.260;22.558;2022-09-16T08:33:40;20.80;80.20
34460;DHT22;20704;51.260;22.558;2022-09-16T08:36:14;18.70;80.90
34460;DHT22;20704;51.260;22.558;2022-09-16T08:38:40;19.60;83.40
34460;DHT22;20704;51.260;22.558;2022-09-16T08:43:51;19.50;84.10
34460;DHT22;20704;51.260;22.558;2022-09-16T08:46:24;19.40;84.90
34460;DHT22;20704;51.260;22.558;2022-09-16T08:49:14;19.20;86.00
34460;DHT22;20704;51.260;22.558;2022-09-16T08:51:41;16.90;85.20
34460;DHT22;20704;51.260;22.558;2022-09-16T08:54:27;19.40;85.10
34460;DHT22;20704;51.260;22.558;2022-09-16T08:57:02;19.50;84.80
34460;DHT22;20704;51.260;22.558;2022-09-16T08:59:31;19.40;86.10
34460;DHT22;20704;51.260;22.558;2022-09-16T09:04:43;19.10;85.60
34460;DHT22;20704;51.260;22.558;2022-09-16T09:08:14;18.70;86.60
34460;DHT22;20704;51.260;22.558;2022-09-16T09:13:02;19.90;86.70
34460;DHT22;20704;51.260;22.558;2022-09-16T09:15:36;20.10;85.00
34460;DHT22;20704;51.260;22.558;2022-09-16T09:20:49;20.70;84.00
34460;DHT22;20704;51.260;22.558;2022-09-16T09:23:20;20.60;84.20
34460;DHT22;20704;51.260;22.558;2022-09-16T09:25:50;20.40;83.30
34460;DHT22;20704;51.260;22.558;2022-09-16T09:33:45;20.50;82.90
34460;DHT22;20704;51.260;22.558;2022-09-16T09:36:48;20.60;81.50
34460;DHT22;20704;51.260;22.558;2022-09-16T09:46:46;19.50;83.90
34460;DHT22;20704;51.260;22.558;2022-09-16T09:49:21;19.20;85.20
34460;DHT22;20704;51.260;22.558;2022-09-16T09:51:57;18.80;87.30
34460;DHT22;20704;51.260;22.558;2022-09-16T09:57:01;18.90;88.50
34460;DHT22;20704;51.260;22.558;2022-09-16T09:59:46;19.30;88.30
34460;DHT22;20704;51.260;22.558;2022-09-16T10:02:19;19.30;87.90
34460;DHT22;20704;51.260;22.558;2022-09-16T10:04:46;19.40;87.90
34460;DHT22;20704;51.260;22.558;2022-09-16T10:07:13;19.50;86.70
34460;DHT22;20704;51.260;22.558;2022-09-16T10:10:14;19.70;86.60
34460;DHT22;20704;51.260;22.558;2022-09-16T10:12:35;19.80;85.90
34460;DHT22;20704;51.260;22.558;2022-09-16T10:15:01;19.70;86.50
34460;DHT22;20704;51.260;22.558;2022-09-16T10:17:28;19.80;85.70
34460;DHT22;20704;51.260;22.558;2022-09-16T10:20:02;19.80;85.60
34460;DHT22;20704;51.260;22.558;2022-09-16T10:22:31;20.00;85.70
34460;DHT22;20704;51.260;22.558;2022-09-16T10:24:58;20.20;85.10
34460;DHT22;20704;51.260;22.558;2022-09-16T10:27:31;20.40;85.40
34460;DHT22;20704;51.260;22.558;2022-09-16T10:32:29;21.20;81.40
34460;DHT22;20704;51.260;22.558;2022-09-16T10:34:56;21.10;79.90
34460;DHT22;20704;51.260;22.558;2022-09-16T10:37:22;20.60;81.00
34460;DHT22;20704;51.260;22.558;2022-09-16T10:39:53;20.50;81.00
34460;DHT22;20704;51.260;22.558;2022-09-16T10:42:20;20.10;81.50
34460;DHT22;20704;51.260;22.558;2022-09-16T10:44:47;19.70;82.90
34460;DHT22;20704;51.260;22.558;2022-09-16T10:47:23;19.40;82.70
34460;DHT22;20704;51.260;22.558;2022-09-16T10:49:51;19.50;84.00
34460;DHT22;20704;51.260;22.558;2022-09-16T10:52:21;19.70;85.10
34460;DHT22;20704;51.260;22.558;2022-09-16T10:54:47;19.50;84.60
34460;DHT22;20704;51.260;22.558;2022-09-16T10:57:20;19.50;85.60
34460;DHT22;20704;51.260;22.558;2022-09-16T10:59:59;19.50;84.30
34460;DHT22;20704;51.260;22.558;2022-09-16T11:05:08;18.90;85.20
34460;DHT22;20704;51.260;22.558;2022-09-16T11:10:33;18.80;86.30
34460;DHT22;20704;51.260;22.558;2022-09-16T11:23:33;18.20;89.30
34460;DHT22;20704;51.260;22.558;2022-09-16T11:36:06;17.80;91.40
34460;DHT22;20704;51.260;22.558;2022-09-16T11:38:40;17.90;91.30
34460;DHT22;20704;51.260;22.558;2022-09-16T11:41:09;17.90;91.50
34460;DHT22;20704;51.260;22.558;2022-09-16T11:46:27;18.10;91.90
34460;DHT22;20704;51.260;22.558;2022-09-16T11:49:01;18.00;91.90
34460;DHT22;20704;51.260;22.558;2022-09-16T11:52:32;18.00;91.90
34460;DHT22;20704;51.260;22.558;2022-09-16T11:56:58;18.10;91.80
34460;DHT22;20704;51.260;22.558;2022-09-16T12:01:56;18.40;91.70
34460;DHT22;20704;51.260;22.558;2022-09-16T12:04:34;17.60;91.80
34460;DHT22;20704;51.260;22.558;2022-09-16T12:09:42;16.50;90.00
34460;DHT22;20704;51.260;22.558;2022-09-16T12:12:20;19.50;90.20
34460;DHT22;20704;51.260;22.558;2022-09-16T12:14:53;19.50;87.60
34460;DHT22;20704;51.260;22.558;2022-09-16T12:17:22;19.70;88.10
34460;DHT22;20704;51.260;22.558;2022-09-16T12:19:52;19.60;85.30
34460;DHT22;20704;51.260;22.558;2022-09-16T12:22:22;20.00;87.50
34460;DHT22;20704;51.260;22.558;2022-09-16T12:28:22;19.90;87.30
34460;DHT22;20704;51.260;22.558;2022-09-16T12:30:26;19.50;87.20
34460;DHT22;20704;51.260;22.558;2022-09-16T12:33:08;19.40;87.50
34460;DHT22;20704;51.260;22.558;2022-09-16T12:35:36;19.20;88.10
34460;DHT22;20704;51.260;22.558;2022-09-16T12:38:05;18.80;88.50
34460;DHT22;20704;51.260;22.558;2022-09-16T13:01:14;18.20;93.40
34460;DHT22;20704;51.260;22.558;2022-09-16T13:03:43;18.50;93.50
34460;DHT22;20704;51.260;22.558;2022-09-16T13:06:17;18.60;92.40
34460;DHT22;20704;51.260;22.558;2022-09-16T13:08:44;18.60;92.40
34460;DHT22;20704;51.260;22.558;2022-09-16T13:11:16;18.70;92.00
34460;DHT22;20704;51.260;22.558;2022-09-16T13:13:45;18.50;91.30
34460;DHT22;20704;51.260;22.558;2022-09-16T13:16:11;18.30;91.50
34460;DHT22;20704;51.260;22.558;2022-09-16T13:18:39;18.50;91.50
34460;DHT22;20704;51.260;22.558;2022-09-16T13:21:11;18.40;91.80
34460;DHT22;20704;51.260;22.558;2022-09-16T13:23:42;18.40;91.60
34460;DHT22;20704;51.260;22.558;2022-09-16T13:26:10;18.50;92.10
34460;DHT22;20704;51.260;22.558;2022-09-16T13:33:39;18.20;92.50
34460;DHT22;20704;51.260;22.558;2022-09-16T13:39:03;17.80;94.90
34460;DHT22;20704;51.260;22.558;2022-09-16T13:41:31;22.50;96.20
34460;DHT22;20704;51.260;22.558;2022-09-16T13:43:57;17.50;95.60
34460;DHT22;20704;51.260;22.558;2022-09-16T13:46:28;17.40;95.60
34460;DHT22;20704;51.260;22.558;2022-09-16T13:49:02;18.20;97.00
34460;DHT22;20704;51.260;22.558;2022-09-16T13:51:40;17.60;97.30
34460;DHT22;20704;51.260;22.558;2022-09-16T13:54:18;17.80;96.80
34460;DHT22;20704;51.260;22.558;2022-09-16T13:56:52;17.90;96.80
34460;DHT22;20704;51.260;22.558;2022-09-16T13:59:32;16.50;96.20
34460;DHT22;20704;51.260;22.558;2022-09-16T14:02:06;18.10;95.20
34460;DHT22;20704;51.260;22.558;2022-09-16T14:09:52;18.20;94.40
34460;DHT22;20704;51.260;22.558;2022-09-16T14:12:30;18.30;93.10
34460;DHT22;20704;51.260;22.558;2022-09-16T14:14:58;18.10;92.90
34460;DHT22;20704;51.260;22.558;2022-09-16T14:17:25;18.00;92.70
34460;DHT22;20704;51.260;22.558;2022-09-16T14:19:52;18.10;92.70
34460;DHT22;20704;51.260;22.558;2022-09-16T14:22:21;18.00;91.50
34460;DHT22;20704;51.260;22.558;2022-09-16T14:24:47;18.00;91.70
34460;DHT22;20704;51.260;22.558;2022-09-16T14:27:18;18.00;92.10
34460;DHT22;20704;51.260;22.558;2022-09-16T14:30:00;18.00;92.20
34460;DHT22;20704;51.260;22.558;2022-09-16T14:32:27;18.00;92.50
34460;DHT22;20704;51.260;22.558;2022-09-16T14:34:54;17.90;92.40
34460;DHT22;20704;51.260;22.558;2022-09-16T14:37:20;17.90;92.10
34460;DHT22;20704;51.260;22.558;2022-09-16T14:39:47;17.90;92.30
34460;DHT22;20704;51.260;22.558;2022-09-16T14:42:15;17.90;92.50
34460;DHT22;20704;51.260;22.558;2022-09-16T14:44:46;18.10;92.90
34460;DHT22;20704;51.260;22.558;2022-09-16T14:50:01;17.90;92.60
34460;DHT22;20704;51.260;22.558;2022-09-16T14:54:57;17.80;93.00
34460;DHT22;20704;51.260;22.558;2022-09-16T14:57:27;17.80;93.20
34460;DHT22;20704;51.260;22.558;2022-09-16T14:59:55;17.50;93.00
34460;DHT22;20704;51.260;22.558;2022-09-16T15:02:27;17.40;93.40
34460;DHT22;20704;51.260;22.558;2022-09-16T15:04:58;17.30;93.70
34460;DHT22;20704;51.260;22.558;2022-09-16T15:07:27;17.20;94.10
34460;DHT22;20704;51.260;22.558;2022-09-16T15:10:01;17.00;95.80
34460;DHT22;20704;51.260;22.558;2022-09-16T15:12:31;16.90;97.20
34460;DHT22;20704;51.260;22.558;2022-09-16T15:15:01;16.60;99.90
34460;DHT22;20704;51.260;22.558;2022-09-16T15:17:28;21.20;99.90
34460;DHT22;20704;51.260;22.558;2022-09-16T15:19:57;16.10;99.90
34460;DHT22;20704;51.260;22.558;2022-09-16T15:22:24;16.00;99.90
34460;DHT22;20704;51.260;22.558;2022-09-16T15:24:54;15.90;99.90
34460;DHT22;20704;51.260;22.558;2022-09-16T15:27:22;15.80;99.90
34460;DHT22;20704;51.260;22.558;2022-09-16T15:29:51;15.80;99.90
34460;DHT22;20704;51.260;22.558;2022-09-16T15:32:18;15.80;99.90
34460;DHT22;20704;51.260;22.558;2022-09-16T15:34:45;15.70;99.90
34460;DHT22;20704;51.260;22.558;2022-09-16T15:37:30;15.70;99.90
34460;DHT22;20704;51.260;22.558;2022-09-16T15:42:41;15.70;99.90
34460;DHT22;20704;51.260;22.558;2022-09-16T15:45:14;15.50;99.90
34460;DHT22;20704;51.260;22.558;2022-09-16T15:47:58;15.50;99.90
34460;DHT22;20704;51.260;22.558;2022-09-16T15:50:26;15.30;99.90
34460;DHT22;20704;51.260;22.558;2022-09-16T15:52:58;15.20;99.90
34460;DHT22;20704;51.260;22.558;2022-09-16T15:58:00;15.00;99.90
34460;DHT22;20704;51.260;22.558;2022-09-16T16:00:27;15.00;99.90
34460;DHT22;20704;51.260;22.558;2022-09-16T16:02:54;15.00;99.90
34460;DHT22;20704;51.260;22.558;2022-09-16T16:05:23;14.90;99.90
34460;DHT22;20704;51.260;22.558;2022-09-16T16:07:50;14.90;99.90
34460;DHT22;20704;51.260;22.558;2022-09-16T16:10:18;14.90;99.90
34460;DHT22;20704;51.260;22.558;2022-09-16T16:12:46;14.80;99.90
34460;DHT22;20704;51.260;22.558;2022-09-16T16:15:14;14.60;99.90
34460;DHT22;20704;51.260;22.558;2022-09-16T16:17:40;14.60;99.90
34460;DHT22;20704;51.260;22.558;2022-09-16T16:20:06;14.40;99.90
34460;DHT22;20704;51.260;22.558;2022-09-16T16:22:33;15.90;99.90
34460;DHT22;20704;51.260;22.558;2022-09-16T16:24:59;14.40;99.90
34460;DHT22;20704;51.260;22.558;2022-09-16T16:27:25;14.30;99.90
34460;DHT22;20704;51.260;22.558;2022-09-16T16:29:51;14.10;99.90
34460;DHT22;20704;51.260;22.558;2022-09-16T16:32:17;14.30;99.90
34460;DHT22;20704;51.260;22.558;2022-09-16T16:34:43;14.20;99.90
34460;DHT22;20704;51.260;22.558;2022-09-16T16:37:10;14.10;99.90
34460;DHT22;20704;51.260;22.558;2022-09-16T16:39:37;14.10;99.90
34460;DHT22;20704;51.260;22.558;2022-09-16T16:42:04;14.10;99.90
34460;DHT22;20704;51.260;22.558;2022-09-16T16:44:33;9.30;99.90
34460;DHT22;20704;51.260;22.558;2022-09-16T16:46:59;14.00;99.90
34460;DHT22;20704;51.260;22.558;2022-09-16T16:49:25;15.50;99.90
34460;DHT22;20704;51.260;22.558;2022-09-16T16:51:52;13.90;99.90
34460;DHT22;20704;51.260;22.558;2022-09-16T16:54:20;13.80;99.90
34460;DHT22;20704;51.260;22.558;2022-09-16T16:56:46;13.80;99.90
34460;DHT22;20704;51.260;22.558;2022-09-16T16:59:13;13.80;99.90
34460;DHT22;20704;51.260;22.558;2022-09-16T17:01:39;13.80;99.90
34460;DHT22;20704;51.260;22.558;2022-09-16T17:04:05;13.80;99.90
34460;DHT22;20704;51.260;22.558;2022-09-16T17:06:31;13.60;99.90
34460;DHT22;20704;51.260;22.558;2022-09-16T17:08:57;13.70;99.90
34460;DHT22;20704;51.260;22.558;2022-09-16T17:11:23;13.60;99.90
34460;DHT22;20704;51.260;22.558;2022-09-16T17:13:51;13.60;99.90
34460;DHT22;20704;51.260;22.558;2022-09-16T17:16:18;13.50;99.90
34460;DHT22;20704;51.260;22.558;2022-09-16T17:18:45;13.50;99.90
34460;DHT22;20704;51.260;22.558;2022-09-16T17:21:12;13.70;99.90
34460;DHT22;20704;51.260;22.558;2022-09-16T17:23:38;13.50;99.90
34460;DHT22;20704;51.260;22.558;2022-09-16T17:26:05;13.40;99.90
34460;DHT22;20704;51.260;22.558;2022-09-16T17:28:31;13.40;99.90
34460;DHT22;20704;51.260;22.558;2022-09-16T17:30:57;13.60;99.90
34460;DHT22;20704;51.260;22.558;2022-09-16T17:33:22;13.50;99.90
34460;DHT22;20704;51.260;22.558;2022-09-16T17:35:58;13.70;99.90
34460;DHT22;20704;51.260;22.558;2022-09-16T17:38:24;13.40;99.90
34460;DHT22;20704;51.260;22.558;2022-09-16T17:40:50;12.80;99.90
34460;DHT22;20704;51.260;22.558;2022-09-16T17:43:16;13.40;99.90
34460;DHT22;20704;51.260;22.558;2022-09-16T17:45:45;13.30;99.90
34460;DHT22;20704;51.260;22.558;2022-09-16T17:48:11;13.40;99.90
34460;DHT22;20704;51.260;22.558;2022-09-16T17:50:37;13.40;99.90
34460;DHT22;20704;51.260;22.558;2022-09-16T17:53:03;13.40;99.90
34460;DHT22;20704;51.260;22.558;2022-09-16T17:55:29;13.30;99.90
34460;DHT22;20704;51.260;22.558;2022-09-16T17:57:55;13.30;99.90
34460;DHT22;20704;51.260;22.558;2022-09-16T18:00:20;13.20;99.90
34460;DHT22;20704;51.260;22.558;2022-09-16T18:02:46;13.20;99.90
34460;DHT22;20704;51.260;22.558;2022-09-16T18:05:12;13.10;99.90
34460;DHT22;20704;51.260;22.558;2022-09-16T18:07:38;13.10;99.90
34460;DHT22;20704;51.260;22.558;2022-09-16T18:10:05;13.10;99.90
34460;DHT22;20704;51.260;22.558;2022-09-16T18:12:31;13.00;99.90
34460;DHT22;20704;51.260;22.558;2022-09-16T18:14:57;13.00;99.90
34460;DHT22;20704;51.260;22.558;2022-09-16T18:17:23;12.90;99.90
34460;DHT22;20704;51.260;22.558;2022-09-16T18:19:49;12.90;99.90
34460;DHT22;20704;51.260;22.558;2022-09-16T18:22:14;12.80;99.90
34460;DHT22;20704;51.260;22.558;2022-09-16T18:24:40;13.00;99.90
34460;DHT22;20704;51.260;22.558;2022-09-16T18:27:07;12.90;99.90
34460;DHT22;20704;51.260;22.558;2022-09-16T18:29:33;13.00;99.90
34460;DHT22;20704;51.260;22.558;2022-09-16T18:31:59;12.90;99.90
34460;DHT22;20704;51.260;22.558;2022-09-16T18:34:25;12.90;99.90
34460;DHT22;20704;51.260;22.558;2022-09-16T18:36:51;12.90;99.90
34460;DHT22;20704;51.260;22.558;2022-09-16T18:39:17;13.10;99.90
34460;DHT22;20704;51.260;22.558;2022-09-16T18:41:44;13.40;99.90
34460;DHT22;20704;51.260;22.558;2022-09-16T18:44:14;13.00;99.90
34460;DHT22;20704;51.260;22.558;2022-09-16T18:46:40;13.00;99.90
34460;DHT22;20704;51.260;22.558;2022-09-16T18:49:06;13.00;99.90
34460;DHT22;20704;51.260;22.558;2022-09-16T18:51:35;13.00;99.90
34460;DHT22;20704;51.260;22.558;2022-09-16T18:54:02;12.70;99.90
34460;DHT22;20704;51.260;22.558;2022-09-16T18:56:29;14.20;99.90
34460;DHT22;20704;51.260;22.558;2022-09-16T18:58:58;12.90;99.90
34460;DHT22;20704;51.260;22.558;2022-09-16T19:03:51;12.90;99.90
34460;DHT22;20704;51.260;22.558;2022-09-16T19:06:17;12.80;99.90
34460;DHT22;20704;51.260;22.558;2022-09-16T19:08:44;12.90;99.90
34460;DHT22;20704;51.260;22.558;2022-09-16T19:11:10;12.80;99.90
34460;DHT22;20704;51.260;22.558;2022-09-16T19:13:36;12.80;99.90
34460;DHT22;20704;51.260;22.558;2022-09-16T19:16:04;12.80;99.90
34460;DHT22;20704;51.260;22.558;2022-09-16T19:18:31;12.70;99.90
34460;DHT22;20704;51.260;22.558;2022-09-16T19:20:57;12.80;99.90
34460;DHT22;20704;51.260;22.558;2022-09-16T19:23:23;12.70;99.90
34460;DHT22;20704;51.260;22.558;2022-09-16T19:25:50;12.80;99.90
34460;DHT22;20704;51.260;22.558;2022-09-16T19:28:16;12.80;99.90
34460;DHT22;20704;51.260;22.558;2022-09-16T19:30:42;12.70;99.90
34460;DHT22;20704;51.260;22.558;2022-09-16T19:33:08;12.70;99.90
34460;DHT22;20704;51.260;22.558;2022-09-16T19:35:34;12.70;99.90
34460;DHT22;20704;51.260;22.558;2022-09-16T19:38:00;11.20;99.90
34460;DHT22;20704;51.260;22.558;2022-09-16T19:40:27;12.70;99.90
34460;DHT22;20704;51.260;22.558;2022-09-16T19:42:53;10.30;99.90
34460;DHT22;20704;51.260;22.558;2022-09-16T19:45:20;12.80;99.90
34460;DHT22;20704;51.260;22.558;2022-09-16T19:47:46;12.70;99.90
34460;DHT22;20704;51.260;22.558;2022-09-16T19:50:12;12.60;99.90
34460;DHT22;20704;51.260;22.558;2022-09-16T19:52:39;12.70;99.90
34460;DHT22;20704;51.260;22.558;2022-09-16T19:55:05;12.80;99.90
34460;DHT22;20704;51.260;22.558;2022-09-16T19:57:32;12.50;99.90
34460;DHT22;20704;51.260;22.558;2022-09-16T19:59:58;12.70;99.90
34460;DHT22;20704;51.260;22.558;2022-09-16T20:02:24;12.90;99.90